sensor_id;sensor_type;location;lat;lon;timestamp;temperature;humidity
43673;DHT22;41723;49.326;8.430;2023-11-22T00:01:37;7.60;99.90
43673;DHT22;41723;49.326;8.430;2023-11-22T00:04:02;7.50;99.90
43673;DHT22;41723;49.326;8.430;2023-11-22T00:06:28;7.40;99.90
43673;DHT22;41723;49.326;8.430;2023-11-22T00:08:55;7.40;99.90
43673;DHT22;41723;49.326;8.430;2023-11-22T00:11:20;7.30;99.90
43673;DHT22;41723;49.326;8.430;2023-11-22T00:13:46;7.30;99.90
43673;DHT22;41723;49.326;8.430;2023-11-22T00:16:12;7.20;99.90
43673;DHT22;41723;49.326;8.430;2023-11-22T00:18:37;7.10;99.90
43673;DHT22;41723;49.326;8.430;2023-11-22T00:21:04;7.10;99.90
43673;DHT22;41723;49.326;8.430;2023-11-22T00:23:30;7.00;99.90
43673;DHT22;41723;49.326;8.430;2023-11-22T00:25:55;6.90;99.90
43673;DHT22;41723;49.326;8.430;2023-11-22T00:28:22;6.90;99.90
43673;DHT22;41723;49.326;8.430;2023-11-22T00:30:48;6.80;99.90
43673;DHT22;41723;49.326;8.430;2023-11-22T00:33:15;6.80;99.90
43673;DHT22;41723;49.326;8.430;2023-11-22T00:35:41;6.80;99.90
43673;DHT22;41723;49.326;8.430;2023-11-22T00:38:06;6.70;99.90
43673;DHT22;41723;49.326;8.430;2023-11-22T00:40:32;6.80;99.90
43673;DHT22;41723;49.326;8.430;2023-11-22T00:42:58;6.70;99.90
43673;DHT22;41723;49.326;8.430;2023-11-22T00:45:23;6.70;99.90
43673;DHT22;41723;49.326;8.430;2023-11-22T00:47:50;6.60;99.90
43673;DHT22;41723;49.326;8.430;2023-11-22T00:50:16;6.50;99.90
43673;DHT22;41723;49.326;8.430;2023-11-22T00:52:45;6.40;99.90
43673;DHT22;41723;49.326;8.430;2023-11-22T00:55:11;6.30;99.90
43673;DHT22;41723;49.326;8.430;2023-11-22T00:57:37;6.40;99.90
43673;DHT22;41723;49.326;8.430;2023-11-22T01:00:03;6.40;99.90
43673;DHT22;41723;49.326;8.430;2023-11-22T01:02:29;6.30;99.90
43673;DHT22;41723;49.326;8.430;2023-11-22T01:04:55;6.40;99.90
43673;DHT22;41723;49.326;8.430;2023-11-22T01:07:21;6.40;99.90
43673;DHT22;41723;49.326;8.430;2023-11-22T01:09:46;6.40;99.90
43673;DHT22;41723;49.326;8.430;2023-11-22T01:12:12;6.40;99.90
43673;DHT22;41723;49.326;8.430;2023-11-22T01:14:38;6.30;99.90
43673;DHT22;41723;49.326;8.430;2023-11-22T01:17:04;6.40;99.90
43673;DHT22;41723;49.326;8.430;2023-11-22T01:19:30;6.40;99.90
43673;DHT22;41723;49.326;8.430;2023-11-22T01:21:56;6.40;99.90
43673;DHT22;41723;49.326;8.430;2023-11-22T01:24:21;6.40;99.90
43673;DHT22;41723;49.326;8.430;2023-11-22T01:26:47;6.40;99.90
43673;DHT22;41723;49.326;8.430;2023-11-22T01:29:13;6.40;99.90
43673;DHT22;41723;49.326;8.430;2023-11-22T01:31:38;6.40;99.90
43673;DHT22;41723;49.326;8.430;2023-11-22T01:34:05;6.30;99.90
43673;DHT22;41723;49.326;8.430;2023-11-22T01:36:31;6.40;99.90
43673;DHT22;41723;49.326;8.430;2023-11-22T01:38:57;6.30;99.90
43673;DHT22;41723;49.326;8.430;2023-11-22T01:41:22;6.40;99.90
43673;DHT22;41723;49.326;8.430;2023-11-22T01:43:48;6.40;99.90
43673;DHT22;41723;49.326;8.430;2023-11-22T01:46:22;6.40;99.90
43673;DHT22;41723;49.326;8.430;2023-11-22T01:48:49;6.30;99.90
43673;DHT22;41723;49.326;8.430;2023-11-22T01:51:15;6.20;99.90
43673;DHT22;41723;49.326;8.430;2023-11-22T01:53:41;6.30;99.90
43673;DHT22;41723;49.326;8.430;2023-11-22T01:56:07;6.20;99.90
43673;DHT22;41723;49.326;8.430;2023-11-22T01:58:35;6.20;99.90
43673;DHT22;41723;49.326;8.430;2023-11-22T02:01:00;6.20;99.90
43673;DHT22;41723;49.326;8.430;2023-11-22T02:03:28;6.20;99.90
43673;DHT22;41723;49.326;8.430;2023-11-22T02:05:54;6.30;99.90
43673;DHT22;41723;49.326;8.430;2023-11-22T02:08:20;6.30;99.90
43673;DHT22;41723;49.326;8.430;2023-11-22T02:10:45;6.30;99.90
43673;DHT22;41723;49.326;8.430;2023-11-22T02:13:14;6.20;99.90
43673;DHT22;41723;49.326;8.430;2023-11-22T02:15:40;6.10;99.90
43673;DHT22;41723;49.326;8.430;2023-11-22T02:18:05;6.10;99.90
43673;DHT22;41723;49.326;8.430;2023-11-22T02:20:32;6.10;99.90
43673;DHT22;41723;49.326;8.430;2023-11-22T02:23:01;6.10;99.90
43673;DHT22;41723;49.326;8.430;2023-11-22T02:25:27;6.00;99.90
43673;DHT22;41723;49.326;8.430;2023-11-22T02:27:53;6.10;99.90
43673;DHT22;41723;49.326;8.430;2023-11-22T02:30:18;6.00;99.90
43673;DHT22;41723;49.326;8.430;2023-11-22T02:32:44;6.00;99.90
43673;DHT22;41723;49.326;8.430;2023-11-22T02:35:09;6.10;99.90
43673;DHT22;41723;49.326;8.430;2023-11-22T02:37:35;6.00;99.90
43673;DHT22;41723;49.326;8.430;2023-11-22T02:42:34;6.00;99.90
43673;DHT22;41723;49.326;8.430;2023-11-22T02:45:00;6.00;99.90
43673;DHT22;41723;49.326;8.430;2023-11-22T02:47:26;5.90;99.90
43673;DHT22;41723;49.326;8.430;2023-11-22T02:49:51;5.90;99.90
43673;DHT22;41723;49.326;8.430;2023-11-22T02:52:17;5.80;99.90
43673;DHT22;41723;49.326;8.430;2023-11-22T02:54:43;5.90;99.90
43673;DHT22;41723;49.326;8.430;2023-11-22T02:57:11;5.70;99.90
43673;DHT22;41723;49.326;8.430;2023-11-22T02:59:37;5.70;99.90
43673;DHT22;41723;49.326;8.430;2023-11-22T03:02:02;5.80;99.90
43673;DHT22;41723;49.326;8.430;2023-11-22T03:04:28;5.70;99.90
43673;DHT22;41723;49.326;8.430;2023-11-22T03:06:54;5.80;99.90
43673;DHT22;41723;49.326;8.430;2023-11-22T03:09:20;5.70;99.90
43673;DHT22;41723;49.326;8.430;2023-11-22T03:11:48;5.80;99.90
43673;DHT22;41723;49.326;8.430;2023-11-22T03:14:13;5.70;99.90
43673;DHT22;41723;49.326;8.430;2023-11-22T03:16:41;5.50;99.90
43673;DHT22;41723;49.326;8.430;2023-11-22T03:19:08;5.50;99.90
43673;DHT22;41723;49.326;8.430;2023-11-22T03:21:33;5.40;99.90
43673;DHT22;41723;49.326;8.430;2023-11-22T03:24:01;5.40;99.90
43673;DHT22;41723;49.326;8.430;2023-11-22T03:26:29;5.40;99.90
43673;DHT22;41723;49.326;8.430;2023-11-22T03:28:55;5.50;99.90
43673;DHT22;41723;49.326;8.430;2023-11-22T03:31:20;5.40;99.90
43673;DHT22;41723;49.326;8.430;2023-11-22T03:33:46;5.30;99.90
43673;DHT22;41723;49.326;8.430;2023-11-22T03:36:12;5.30;99.90
43673;DHT22;41723;49.326;8.430;2023-11-22T03:38:41;5.30;99.90
43673;DHT22;41723;49.326;8.430;2023-11-22T03:41:06;5.30;99.90
43673;DHT22;41723;49.326;8.430;2023-11-22T03:43:32;5.30;99.90
43673;DHT22;41723;49.326;8.430;2023-11-22T03:45:58;5.30;99.90
43673;DHT22;41723;49.326;8.430;2023-11-22T03:48:23;5.20;99.90
43673;DHT22;41723;49.326;8.430;2023-11-22T03:50:51;5.30;99.90
43673;DHT22;41723;49.326;8.430;2023-11-22T03:53:16;5.30;99.90
43673;DHT22;41723;49.326;8.430;2023-11-22T03:55:42;5.30;99.90
43673;DHT22;41723;49.326;8.430;2023-11-22T03:58:08;5.30;99.90
43673;DHT22;41723;49.326;8.430;2023-11-22T04:00:35;5.10;99.90
43673;DHT22;41723;49.326;8.430;2023-11-22T04:03:00;5.10;99.90
43673;DHT22;41723;49.326;8.430;2023-11-22T04:05:27;5.10;99.90
43673;DHT22;41723;49.326;8.430;2023-11-22T04:07:53;5.20;99.90
43673;DHT22;41723;49.326;8.430;2023-11-22T04:10:19;5.10;99.90
43673;DHT22;41723;49.326;8.430;2023-11-22T04:12:46;5.00;99.90
43673;DHT22;41723;49.326;8.430;2023-11-22T04:15:13;5.00;99.90
43673;DHT22;41723;49.326;8.430;2023-11-22T04:17:39;5.00;99.90
43673;DHT22;41723;49.326;8.430;2023-11-22T04:20:06;5.10;99.90
43673;DHT22;41723;49.326;8.430;2023-11-22T04:22:35;5.00;99.90
43673;DHT22;41723;49.326;8.430;2023-11-22T04:25:00;5.00;99.90
43673;DHT22;41723;49.326;8.430;2023-11-22T04:27:27;5.00;99.90
43673;DHT22;41723;49.326;8.430;2023-11-22T04:29:53;4.90;99.90
43673;DHT22;41723;49.326;8.430;2023-11-22T04:32:19;4.80;99.90
43673;DHT22;41723;49.326;8.430;2023-11-22T04:34:47;4.90;99.90
43673;DHT22;41723;49.326;8.430;2023-11-22T04:37:13;4.90;99.90
43673;DHT22;41723;49.326;8.430;2023-11-22T04:39:38;4.90;99.90
43673;DHT22;41723;49.326;8.430;2023-11-22T04:42:04;4.90;99.90
43673;DHT22;41723;49.326;8.430;2023-11-22T04:44:30;4.90;99.90
43673;DHT22;41723;49.326;8.430;2023-11-22T04:46:55;4.80;99.90
43673;DHT22;41723;49.326;8.430;2023-11-22T04:49:21;4.70;99.90
43673;DHT22;41723;49.326;8.430;2023-11-22T04:51:47;4.90;99.90
43673;DHT22;41723;49.326;8.430;2023-11-22T04:54:12;4.70;99.90
43673;DHT22;41723;49.326;8.430;2023-11-22T04:56:38;4.70;99.90
43673;DHT22;41723;49.326;8.430;2023-11-22T04:59:04;4.70;99.90
43673;DHT22;41723;49.326;8.430;2023-11-22T05:01:32;4.60;99.90
43673;DHT22;41723;49.326;8.430;2023-11-22T05:03:59;4.60;99.90
43673;DHT22;41723;49.326;8.430;2023-11-22T05:06:24;4.60;99.90
43673;DHT22;41723;49.326;8.430;2023-11-22T05:08:51;4.60;99.90
43673;DHT22;41723;49.326;8.430;2023-11-22T05:11:17;4.60;99.90
43673;DHT22;41723;49.326;8.430;2023-11-22T05:13:42;4.70;99.90
43673;DHT22;41723;49.326;8.430;2023-11-22T05:16:08;4.60;99.90
43673;DHT22;41723;49.326;8.430;2023-11-22T05:18:34;4.60;99.90
43673;DHT22;41723;49.326;8.430;2023-11-22T05:21:01;4.50;99.90
43673;DHT22;41723;49.326;8.430;2023-11-22T05:23:28;4.50;99.90
43673;DHT22;41723;49.326;8.430;2023-11-22T05:25:54;4.50;99.90
43673;DHT22;41723;49.326;8.430;2023-11-22T05:28:19;4.50;99.90
43673;DHT22;41723;49.326;8.430;2023-11-22T05:30:45;4.40;99.90
43673;DHT22;41723;49.326;8.430;2023-11-22T05:33:11;4.40;99.90
43673;DHT22;41723;49.326;8.430;2023-11-22T05:35:37;4.40;99.90
43673;DHT22;41723;49.326;8.430;2023-11-22T05:38:02;4.30;99.90
43673;DHT22;41723;49.326;8.430;2023-11-22T05:40:28;4.30;99.90
43673;DHT22;41723;49.326;8.430;2023-11-22T05:42:53;4.30;99.90
43673;DHT22;41723;49.326;8.430;2023-11-22T05:45:19;4.30;99.90
43673;DHT22;41723;49.326;8.430;2023-11-22T05:47:45;4.30;99.90
43673;DHT22;41723;49.326;8.430;2023-11-22T05:50:10;4.30;99.90
43673;DHT22;41723;49.326;8.430;2023-11-22T05:52:36;4.30;99.90
43673;DHT22;41723;49.326;8.430;2023-11-22T05:55:01;4.20;99.90
43673;DHT22;41723;49.326;8.430;2023-11-22T05:57:29;4.20;99.90
43673;DHT22;41723;49.326;8.430;2023-11-22T05:59:56;4.20;99.90
43673;DHT22;41723;49.326;8.430;2023-11-22T06:02:24;4.10;99.90
43673;DHT22;41723;49.326;8.430;2023-11-22T06:04:52;4.20;99.90
43673;DHT22;41723;49.326;8.430;2023-11-22T06:07:17;4.20;99.90
43673;DHT22;41723;49.326;8.430;2023-11-22T06:09:43;4.10;99.90
43673;DHT22;41723;49.326;8.430;2023-11-22T06:12:08;4.20;99.90
43673;DHT22;41723;49.326;8.430;2023-11-22T06:14:34;4.10;99.90
43673;DHT22;41723;49.326;8.430;2023-11-22T06:16:59;4.00;99.90
43673;DHT22;41723;49.326;8.430;2023-11-22T06:19:25;4.20;99.90
43673;DHT22;41723;49.326;8.430;2023-11-22T06:21:51;4.20;99.90
43673;DHT22;41723;49.326;8.430;2023-11-22T06:24:17;4.30;99.90
43673;DHT22;41723;49.326;8.430;2023-11-22T06:26:43;4.20;99.90
43673;DHT22;41723;49.326;8.430;2023-11-22T06:29:09;4.30;99.90
43673;DHT22;41723;49.326;8.430;2023-11-22T06:31:34;4.30;99.90
43673;DHT22;41723;49.326;8.430;2023-11-22T06:34:00;4.30;99.90
43673;DHT22;41723;49.326;8.430;2023-11-22T06:36:26;4.30;99.90
43673;DHT22;41723;49.326;8.430;2023-11-22T06:38:53;4.30;99.90
43673;DHT22;41723;49.326;8.430;2023-11-22T06:41:19;4.30;99.90
43673;DHT22;41723;49.326;8.430;2023-11-22T06:43:47;4.30;99.90
43673;DHT22;41723;49.326;8.430;2023-11-22T06:46:13;4.30;99.90
43673;DHT22;41723;49.326;8.430;2023-11-22T06:48:41;4.30;99.90
43673;DHT22;41723;49.326;8.430;2023-11-22T06:51:09;4.40;99.90
43673;DHT22;41723;49.326;8.430;2023-11-22T06:53:34;4.30;99.90
43673;DHT22;41723;49.326;8.430;2023-11-22T06:56:01;4.30;99.90
43673;DHT22;41723;49.326;8.430;2023-11-22T06:58:26;4.40;99.90
43673;DHT22;41723;49.326;8.430;2023-11-22T07:00:52;4.20;99.90
43673;DHT22;41723;49.326;8.430;2023-11-22T07:03:18;4.30;99.90
43673;DHT22;41723;49.326;8.430;2023-11-22T07:05:44;4.00;99.90
43673;DHT22;41723;49.326;8.430;2023-11-22T07:08:09;4.00;99.90
43673;DHT22;41723;49.326;8.430;2023-11-22T07:10:36;3.90;99.90
43673;DHT22;41723;49.326;8.430;2023-11-22T07:13:02;3.90;99.90
43673;DHT22;41723;49.326;8.430;2023-11-22T07:15:28;3.90;99.90
43673;DHT22;41723;49.326;8.430;2023-11-22T07:17:54;3.90;99.90
43673;DHT22;41723;49.326;8.430;2023-11-22T07:20:20;4.30;99.90
43673;DHT22;41723;49.326;8.430;2023-11-22T07:22:46;4.80;99.90
43673;DHT22;41723;49.326;8.430;2023-11-22T07:25:12;5.90;99.90
43673;DHT22;41723;49.326;8.430;2023-11-22T07:27:50;5.90;99.90
43673;DHT22;41723;49.326;8.430;2023-11-22T07:30:16;6.00;99.90
43673;DHT22;41723;49.326;8.430;2023-11-22T07:32:44;6.60;99.90
43673;DHT22;41723;49.326;8.430;2023-11-22T07:35:10;6.40;99.90
43673;DHT22;41723;49.326;8.430;2023-11-22T07:37:37;6.10;99.90
43673;DHT22;41723;49.326;8.430;2023-11-22T07:40:08;6.30;99.90
43673;DHT22;41723;49.326;8.430;2023-11-22T07:42:35;5.80;99.90
43673;DHT22;41723;49.326;8.430;2023-11-22T07:45:01;5.80;99.90
43673;DHT22;41723;49.326;8.430;2023-11-22T07:47:27;5.90;99.90
43673;DHT22;41723;49.326;8.430;2023-11-22T07:49:53;5.10;99.90
43673;DHT22;41723;49.326;8.430;2023-11-22T07:52:21;4.70;99.90
43673;DHT22;41723;49.326;8.430;2023-11-22T07:54:46;4.50;99.90
43673;DHT22;41723;49.326;8.430;2023-11-22T07:57:13;4.40;99.90
43673;DHT22;41723;49.326;8.430;2023-11-22T07:59:38;4.10;99.90
43673;DHT22;41723;49.326;8.430;2023-11-22T08:02:05;4.00;99.90
43673;DHT22;41723;49.326;8.430;2023-11-22T08:04:36;4.00;99.90
43673;DHT22;41723;49.326;8.430;2023-11-22T08:07:01;4.00;99.90
43673;DHT22;41723;49.326;8.430;2023-11-22T08:09:27;4.00;99.90
43673;DHT22;41723;49.326;8.430;2023-11-22T08:12:00;3.90;99.90
43673;DHT22;41723;49.326;8.430;2023-11-22T08:14:28;3.90;99.90
43673;DHT22;41723;49.326;8.430;2023-11-22T08:16:54;3.90;99.90
43673;DHT22;41723;49.326;8.430;2023-11-22T08:19:19;4.00;99.90
43673;DHT22;41723;49.326;8.430;2023-11-22T08:21:45;3.90;99.90
43673;DHT22;41723;49.326;8.430;2023-11-22T08:24:11;3.90;99.90
43673;DHT22;41723;49.326;8.430;2023-11-22T08:26:38;3.90;99.90
43673;DHT22;41723;49.326;8.430;2023-11-22T08:29:04;3.90;99.90
43673;DHT22;41723;49.326;8.430;2023-11-22T08:31:31;3.80;99.90
43673;DHT22;41723;49.326;8.430;2023-11-22T08:33:56;3.80;99.90
43673;DHT22;41723;49.326;8.430;2023-11-22T08:36:22;3.90;99.90
43673;DHT22;41723;49.326;8.430;2023-11-22T08:38:49;4.00;99.90
43673;DHT22;41723;49.326;8.430;2023-11-22T08:41:14;4.20;99.90
43673;DHT22;41723;49.326;8.430;2023-11-22T08:43:40;4.20;99.90
43673;DHT22;41723;49.326;8.430;2023-11-22T08:46:06;4.20;99.90
43673;DHT22;41723;49.326;8.430;2023-11-22T08:48:33;4.10;99.90
43673;DHT22;41723;49.326;8.430;2023-11-22T08:50:59;4.30;99.90
43673;DHT22;41723;49.326;8.430;2023-11-22T08:53:26;4.20;99.90
43673;DHT22;41723;49.326;8.430;2023-11-22T08:55:51;4.10;99.90
43673;DHT22;41723;49.326;8.430;2023-11-22T08:58:20;4.10;99.90
43673;DHT22;41723;49.326;8.430;2023-11-22T09:00:45;4.20;99.90
43673;DHT22;41723;49.326;8.430;2023-11-22T09:03:11;4.10;99.90
43673;DHT22;41723;49.326;8.430;2023-11-22T09:05:41;4.00;99.90
43673;DHT22;41723;49.326;8.430;2023-11-22T09:08:08;4.00;99.90
43673;DHT22;41723;49.326;8.430;2023-11-22T09:10:38;4.00;99.90
43673;DHT22;41723;49.326;8.430;2023-11-22T09:13:05;4.00;99.90
43673;DHT22;41723;49.326;8.430;2023-11-22T09:15:31;4.20;99.90
43673;DHT22;41723;49.326;8.430;2023-11-22T09:17:59;4.10;99.90
43673;DHT22;41723;49.326;8.430;2023-11-22T09:20:24;4.20;99.90
43673;DHT22;41723;49.326;8.430;2023-11-22T09:22:51;4.30;99.90
43673;DHT22;41723;49.326;8.430;2023-11-22T09:25:17;4.40;99.90
43673;DHT22;41723;49.326;8.430;2023-11-22T09:27:44;4.50;99.90
43673;DHT22;41723;49.326;8.430;2023-11-22T09:30:15;4.30;99.90
43673;DHT22;41723;49.326;8.430;2023-11-22T09:33:04;4.30;99.90
43673;DHT22;41723;49.326;8.430;2023-11-22T09:35:29;4.50;99.90
43673;DHT22;41723;49.326;8.430;2023-11-22T09:38:00;4.60;99.90
43673;DHT22;41723;49.326;8.430;2023-11-22T09:40:26;4.50;99.90
43673;DHT22;41723;49.326;8.430;2023-11-22T09:42:52;4.40;99.90
43673;DHT22;41723;49.326;8.430;2023-11-22T09:45:19;4.50;99.90
43673;DHT22;41723;49.326;8.430;2023-11-22T09:47:45;4.70;99.90
43673;DHT22;41723;49.326;8.430;2023-11-22T09:50:12;4.80;99.70
43673;DHT22;41723;49.326;8.430;2023-11-22T09:52:39;4.90;99.90
43673;DHT22;41723;49.326;8.430;2023-11-22T09:55:07;5.10;99.90
43673;DHT22;41723;49.326;8.430;2023-11-22T09:57:34;5.00;99.60
43673;DHT22;41723;49.326;8.430;2023-11-22T10:00:01;4.90;99.60
43673;DHT22;41723;49.326;8.430;2023-11-22T10:02:26;4.80;99.90
43673;DHT22;41723;49.326;8.430;2023-11-22T10:04:54;4.90;99.80
43673;DHT22;41723;49.326;8.430;2023-11-22T10:07:19;4.90;99.60
43673;DHT22;41723;49.326;8.430;2023-11-22T10:09:45;4.70;99.90
43673;DHT22;41723;49.326;8.430;2023-11-22T10:12:18;4.60;99.50
43673;DHT22;41723;49.326;8.430;2023-11-22T10:14:46;4.70;99.90
43673;DHT22;41723;49.326;8.430;2023-11-22T10:17:12;4.80;99.70
43673;DHT22;41723;49.326;8.430;2023-11-22T10:19:40;4.80;99.70
43673;DHT22;41723;49.326;8.430;2023-11-22T10:22:07;4.70;99.90
43673;DHT22;41723;49.326;8.430;2023-11-22T10:24:33;4.60;99.90
43673;DHT22;41723;49.326;8.430;2023-11-22T10:26:59;4.60;99.90
43673;DHT22;41723;49.326;8.430;2023-11-22T10:29:25;4.50;99.90
43673;DHT22;41723;49.326;8.430;2023-11-22T10:31:51;4.50;99.90
43673;DHT22;41723;49.326;8.430;2023-11-22T10:34:20;4.50;99.90
43673;DHT22;41723;49.326;8.430;2023-11-22T10:36:47;4.50;99.90
43673;DHT22;41723;49.326;8.430;2023-11-22T10:39:13;4.50;99.90
43673;DHT22;41723;49.326;8.430;2023-11-22T10:41:42;4.70;99.90
43673;DHT22;41723;49.326;8.430;2023-11-22T10:44:09;4.80;99.90
43673;DHT22;41723;49.326;8.430;2023-11-22T10:46:35;4.80;99.90
43673;DHT22;41723;49.326;8.430;2023-11-22T10:49:01;4.90;99.90
43673;DHT22;41723;49.326;8.430;2023-11-22T10:51:29;4.80;99.30
43673;DHT22;41723;49.326;8.430;2023-11-22T10:53:56;4.90;99.60
43673;DHT22;41723;49.326;8.430;2023-11-22T10:56:23;5.00;99.90
43673;DHT22;41723;49.326;8.430;2023-11-22T10:58:51;5.00;99.90
43673;DHT22;41723;49.326;8.430;2023-11-22T11:01:19;5.00;99.90
43673;DHT22;41723;49.326;8.430;2023-11-22T11:04:00;4.90;99.90
43673;DHT22;41723;49.326;8.430;2023-11-22T11:06:29;5.10;99.90
43673;DHT22;41723;49.326;8.430;2023-11-22T11:09:02;5.00;98.90
43673;DHT22;41723;49.326;8.430;2023-11-22T11:11:35;4.90;99.10
43673;DHT22;41723;49.326;8.430;2023-11-22T11:14:02;4.90;99.40
43673;DHT22;41723;49.326;8.430;2023-11-22T11:16:28;4.90;99.40
43673;DHT22;41723;49.326;8.430;2023-11-22T11:18:56;5.00;99.50
43673;DHT22;41723;49.326;8.430;2023-11-22T11:21:24;5.00;99.50
43673;DHT22;41723;49.326;8.430;2023-11-22T11:23:51;4.90;99.60
43673;DHT22;41723;49.326;8.430;2023-11-22T11:26:18;5.10;99.80
43673;DHT22;41723;49.326;8.430;2023-11-22T11:28:45;5.20;99.70
43673;DHT22;41723;49.326;8.430;2023-11-22T11:31:13;5.20;98.30
43673;DHT22;41723;49.326;8.430;2023-11-22T11:36:24;5.30;99.60
43673;DHT22;41723;49.326;8.430;2023-11-22T11:38:54;5.40;99.60
43673;DHT22;41723;49.326;8.430;2023-11-22T11:41:24;5.50;98.50
43673;DHT22;41723;49.326;8.430;2023-11-22T11:43:50;5.40;99.00
43673;DHT22;41723;49.326;8.430;2023-11-22T11:46:16;5.10;98.50
43673;DHT22;41723;49.326;8.430;2023-11-22T11:48:42;5.10;99.60
43673;DHT22;41723;49.326;8.430;2023-11-22T11:51:08;5.10;98.80
43673;DHT22;41723;49.326;8.430;2023-11-22T11:53:34;5.10;98.90
43673;DHT22;41723;49.326;8.430;2023-11-22T11:56:01;5.10;98.60
43673;DHT22;41723;49.326;8.430;2023-11-22T11:58:27;5.10;99.10
43673;DHT22;41723;49.326;8.430;2023-11-22T12:00:54;5.40;99.30
43673;DHT22;41723;49.326;8.430;2023-11-22T12:03:20;5.40;98.60
43673;DHT22;41723;49.326;8.430;2023-11-22T12:05:49;5.50;98.00
43673;DHT22;41723;49.326;8.430;2023-11-22T12:08:15;5.50;99.40
43673;DHT22;41723;49.326;8.430;2023-11-22T12:10:43;5.60;98.60
43673;DHT22;41723;49.326;8.430;2023-11-22T12:13:09;5.60;98.20
43673;DHT22;41723;49.326;8.430;2023-11-22T12:15:34;5.60;97.90
43673;DHT22;41723;49.326;8.430;2023-11-22T12:18:01;5.40;97.90
43673;DHT22;41723;49.326;8.430;2023-11-22T12:20:26;5.50;98.20
43673;DHT22;41723;49.326;8.430;2023-11-22T12:22:59;5.60;98.50
43673;DHT22;41723;49.326;8.430;2023-11-22T12:25:29;5.50;98.40
43673;DHT22;41723;49.326;8.430;2023-11-22T12:27:54;5.60;98.30
43673;DHT22;41723;49.326;8.430;2023-11-22T12:30:38;5.40;98.20
43673;DHT22;41723;49.326;8.430;2023-11-22T12:33:05;5.60;98.50
43673;DHT22;41723;49.326;8.430;2023-11-22T12:35:32;5.40;97.80
43673;DHT22;41723;49.326;8.430;2023-11-22T12:38:02;5.30;97.90
43673;DHT22;41723;49.326;8.430;2023-11-22T12:40:31;5.30;98.60
43673;DHT22;41723;49.326;8.430;2023-11-22T12:42:57;5.30;98.00
43673;DHT22;41723;49.326;8.430;2023-11-22T12:45:23;5.20;98.60
43673;DHT22;41723;49.326;8.430;2023-11-22T12:47:49;5.40;98.20
43673;DHT22;41723;49.326;8.430;2023-11-22T12:50:34;5.50;98.80
43673;DHT22;41723;49.326;8.430;2023-11-22T12:53:13;5.50;98.30
43673;DHT22;41723;49.326;8.430;2023-11-22T12:55:42;5.70;98.40
43673;DHT22;41723;49.326;8.430;2023-11-22T12:58:12;5.50;97.60
43673;DHT22;41723;49.326;8.430;2023-11-22T13:00:41;5.50;98.90
43673;DHT22;41723;49.326;8.430;2023-11-22T13:03:07;5.60;98.10
43673;DHT22;41723;49.326;8.430;2023-11-22T13:05:33;5.60;98.30
43673;DHT22;41723;49.326;8.430;2023-11-22T13:07:59;5.70;97.80
43673;DHT22;41723;49.326;8.430;2023-11-22T13:10:24;5.80;97.50
43673;DHT22;41723;49.326;8.430;2023-11-22T13:12:51;5.90;98.70
43673;DHT22;41723;49.326;8.430;2023-11-22T13:15:17;5.80;97.40
43673;DHT22;41723;49.326;8.430;2023-11-22T13:17:42;5.70;97.10
43673;DHT22;41723;49.326;8.430;2023-11-22T13:20:08;5.50;97.60
43673;DHT22;41723;49.326;8.430;2023-11-22T13:22:42;5.60;97.80
43673;DHT22;41723;49.326;8.430;2023-11-22T13:25:08;5.50;97.80
43673;DHT22;41723;49.326;8.430;2023-11-22T13:27:38;5.50;97.80
43673;DHT22;41723;49.326;8.430;2023-11-22T13:30:04;5.50;97.80
43673;DHT22;41723;49.326;8.430;2023-11-22T13:32:30;5.60;98.60
43673;DHT22;41723;49.326;8.430;2023-11-22T13:34:56;5.80;98.00
43673;DHT22;41723;49.326;8.430;2023-11-22T13:37:23;5.80;97.40
43673;DHT22;41723;49.326;8.430;2023-11-22T13:39:48;5.70;97.00
43673;DHT22;41723;49.326;8.430;2023-11-22T13:42:14;5.70;97.10
43673;DHT22;41723;49.326;8.430;2023-11-22T13:44:40;5.70;98.10
43673;DHT22;41723;49.326;8.430;2023-11-22T13:47:08;5.80;98.50
43673;DHT22;41723;49.326;8.430;2023-11-22T13:49:33;5.70;97.50
43673;DHT22;41723;49.326;8.430;2023-11-22T13:51:59;5.60;97.50
43673;DHT22;41723;49.326;8.430;2023-11-22T13:54:25;5.70;98.30
43673;DHT22;41723;49.326;8.430;2023-11-22T13:56:50;5.60;97.50
43673;DHT22;41723;49.326;8.430;2023-11-22T13:59:17;5.70;97.40
43673;DHT22;41723;49.326;8.430;2023-11-22T14:01:42;5.60;97.40
43673;DHT22;41723;49.326;8.430;2023-11-22T14:04:08;5.60;98.50
43673;DHT22;41723;49.326;8.430;2023-11-22T14:06:33;5.60;98.60
43673;DHT22;41723;49.326;8.430;2023-11-22T14:08:59;5.50;98.30
43673;DHT22;41723;49.326;8.430;2023-11-22T14:11:25;5.70;97.60
43673;DHT22;41723;49.326;8.430;2023-11-22T14:13:51;5.60;98.50
43673;DHT22;41723;49.326;8.430;2023-11-22T14:16:16;5.50;98.10
43673;DHT22;41723;49.326;8.430;2023-11-22T14:18:42;5.50;99.20
43673;DHT22;41723;49.326;8.430;2023-11-22T14:21:07;5.50;97.80
43673;DHT22;41723;49.326;8.430;2023-11-22T14:23:34;5.40;97.70
43673;DHT22;41723;49.326;8.430;2023-11-22T14:25:59;5.60;97.70
43673;DHT22;41723;49.326;8.430;2023-11-22T14:28:25;5.60;99.10
43673;DHT22;41723;49.326;8.430;2023-11-22T14:30:51;5.70;97.90
43673;DHT22;41723;49.326;8.430;2023-11-22T14:33:20;5.70;97.90
43673;DHT22;41723;49.326;8.430;2023-11-22T14:35:45;5.60;97.30
43673;DHT22;41723;49.326;8.430;2023-11-22T14:38:11;5.60;97.40
43673;DHT22;41723;49.326;8.430;2023-11-22T14:40:39;5.70;97.10
43673;DHT22;41723;49.326;8.430;2023-11-22T14:43:05;5.50;96.70
43673;DHT22;41723;49.326;8.430;2023-11-22T14:45:31;5.40;97.30
43673;DHT22;41723;49.326;8.430;2023-11-22T14:47:58;5.40;96.70
43673;DHT22;41723;49.326;8.430;2023-11-22T14:50:23;5.30;96.80
43673;DHT22;41723;49.326;8.430;2023-11-22T14:52:52;5.50;97.30
43673;DHT22;41723;49.326;8.430;2023-11-22T14:55:18;5.50;97.10
43673;DHT22;41723;49.326;8.430;2023-11-22T14:57:44;5.60;97.50
43673;DHT22;41723;49.326;8.430;2023-11-22T15:00:10;5.60;97.50
43673;DHT22;41723;49.326;8.430;2023-11-22T15:02:40;5.70;97.10
43673;DHT22;41723;49.326;8.430;2023-11-22T15:05:07;5.80;97.70
43673;DHT22;41723;49.326;8.430;2023-11-22T15:07:35;6.00;97.40
43673;DHT22;41723;49.326;8.430;2023-11-22T15:10:01;5.90;96.70
43673;DHT22;41723;49.326;8.430;2023-11-22T15:12:27;5.80;96.40
43673;DHT22;41723;49.326;8.430;2023-11-22T15:14:56;5.90;96.90
43673;DHT22;41723;49.326;8.430;2023-11-22T15:17:21;6.00;97.30
43673;DHT22;41723;49.326;8.430;2023-11-22T15:19:47;6.10;97.10
43673;DHT22;41723;49.326;8.430;2023-11-22T15:22:13;6.00;97.70
43673;DHT22;41723;49.326;8.430;2023-11-22T15:24:39;6.10;97.20
43673;DHT22;41723;49.326;8.430;2023-11-22T15:27:04;6.10;96.60
43673;DHT22;41723;49.326;8.430;2023-11-22T15:29:30;6.10;97.30
43673;DHT22;41723;49.326;8.430;2023-11-22T15:31:57;6.10;96.60
43673;DHT22;41723;49.326;8.430;2023-11-22T15:34:23;6.00;96.50
43673;DHT22;41723;49.326;8.430;2023-11-22T15:36:48;5.70;96.80
43673;DHT22;41723;49.326;8.430;2023-11-22T15:39:14;5.50;97.30
43673;DHT22;41723;49.326;8.430;2023-11-22T15:41:42;5.40;97.40
43673;DHT22;41723;49.326;8.430;2023-11-22T15:44:09;5.20;98.00
43673;DHT22;41723;49.326;8.430;2023-11-22T15:46:34;5.20;98.40